createdAt,value
2023-04-30T00:00:02.526Z,100221.63
2023-04-30T00:01:03.514Z,100218.75
2023-04-30T00:01:43.620Z,100202.06
2023-04-30T00:02:23.631Z,100196.78
2023-04-30T00:03:04.425Z,100240.06
2023-04-30T00:03:44.548Z,100220.13
2023-04-30T00:04:31.518Z,100238.53
2023-04-30T00:05:25.481Z,100233.56
2023-04-30T00:06:19.492Z,100233.13
2023-04-30T00:07:13.476Z,100221.09
2023-04-30T00:08:07.515Z,100228.16
2023-04-30T00:09:01.665Z,100220.94
2023-04-30T00:09:48.493Z,100235.50
2023-04-30T00:10:22.572Z,100226.09
2023-04-30T00:11:09.459Z,100248.59
2023-04-30T00:11:43.594Z,100218.69
2023-04-30T00:12:30.499Z,100230.97
2023-04-30T00:13:04.563Z,100242.81
2023-04-30T00:13:51.472Z,100226.97
2023-04-30T00:14:25.645Z,100237.28
2023-04-30T00:15:13.519Z,100241.28
2023-04-30T00:15:47.905Z,100220.59
2023-04-30T00:16:34.628Z,100236.72
2023-04-30T00:17:08.546Z,100243.28
2023-04-30T00:17:55.509Z,100240.66
2023-04-30T00:18:35.567Z,100222.44
2023-04-30T00:19:15.529Z,100233.16
2023-04-30T00:19:56.017Z,100221.75
2023-04-30T00:20:36.508Z,100242.28
2023-04-30T00:21:16.550Z,100249.56
2023-04-30T00:21:56.481Z,100254.09
2023-04-30T00:22:36.567Z,100230.75
2023-04-30T00:23:16.440Z,100233.34
2023-04-30T00:23:56.607Z,100238.75
2023-04-30T00:24:36.512Z,100236.75
2023-04-30T00:25:16.711Z,100225.34
2023-04-30T00:25:57.545Z,100233.00
2023-04-30T00:26:37.578Z,100245.13
2023-04-30T00:27:17.517Z,100226.44
2023-04-30T00:27:58.587Z,100226.00
2023-04-30T00:28:38.543Z,100240.28
2023-04-30T00:29:18.554Z,100236.28
2023-04-30T00:29:58.437Z,100244.97
2023-04-30T00:30:38.542Z,100232.72
2023-04-30T00:31:18.554Z,100236.97
2023-04-30T00:31:58.675Z,100248.03
2023-04-30T00:32:38.495Z,100236.97
2023-04-30T00:33:18.570Z,100240.38
2023-04-30T00:33:58.474Z,100242.88
2023-04-30T00:34:38.583Z,100254.19
2023-04-30T00:35:19.466Z,100237.47
2023-04-30T00:35:59.508Z,100254.38
2023-04-30T00:36:39.460Z,100247.72
2023-04-30T00:37:19.540Z,100256.59
2023-04-30T00:37:59.443Z,100260.41
2023-04-30T00:38:40.118Z,100249.88
2023-04-30T00:39:20.490Z,100260.72
2023-04-30T00:40:00.630Z,100265.41
2023-04-30T00:40:44.488Z,100247.03
2023-04-30T00:41:25.597Z,100273.06
2023-04-30T00:42:05.459Z,100262.72
2023-04-30T00:42:45.603Z,100270.66
2023-04-30T00:43:25.462Z,100271.09
2023-04-30T00:44:06.553Z,100264.81
2023-04-30T00:44:46.443Z,100264.81
2023-04-30T00:45:27.514Z,100269.06
2023-04-30T00:46:07.486Z,100273.56
2023-04-30T00:46:47.544Z,100256.88
2023-04-30T00:47:27.476Z,100257.56
2023-04-30T00:48:29.425Z,100272.91
2023-04-30T00:49:23.457Z,100254.97
2023-04-30T00:50:22.471Z,100263.50
2023-04-30T00:51:17.455Z,100256.53
2023-04-30T00:52:11.440Z,100264.81
2023-04-30T00:52:52.447Z,100273.63
2023-04-30T00:53:33.557Z,100271.41
2023-04-30T00:54:14.471Z,100266.09
2023-04-30T00:54:55.684Z,100268.53
2023-04-30T00:55:35.425Z,100267.06
2023-04-30T00:56:16.610Z,100272.41
2023-04-30T00:56:57.406Z,100271.63
2023-04-30T00:57:37.563Z,100263.34
2023-04-30T00:58:17.473Z,100264.75
2023-04-30T00:58:57.860Z,100266.75
2023-04-30T00:59:39.513Z,100273.06
2023-04-30T01:00:20.537Z,100280.41
2023-04-30T01:01:01.460Z,100261.22
2023-04-30T01:01:41.997Z,100286.19
2023-04-30T01:02:23.507Z,100287.28
2023-04-30T01:03:04.133Z,100257.56
2023-04-30T01:03:45.468Z,100289.53
2023-04-30T01:04:25.976Z,100275.31
2023-04-30T01:05:07.445Z,100259.28
2023-04-30T01:05:47.543Z,100277.00
2023-04-30T01:06:27.488Z,100275.31
2023-04-30T01:07:07.512Z,100278.56
2023-04-30T01:07:51.411Z,100264.75
2023-04-30T01:08:31.832Z,100286.97
2023-04-30T01:09:12.471Z,100268.97
2023-04-30T01:09:52.830Z,100256.94
2023-04-30T01:10:42.447Z,100272.84
2023-04-30T01:12:03.705Z,100292.41
2023-04-30T01:12:59.421Z,100291.56
2023-04-30T01:13:51.562Z,100289.91
2023-04-30T01:15:08.406Z,100291.47
2023-04-30T01:16:15.621Z,100295.56
2023-04-30T01:17:24.440Z,100276.47
2023-04-30T01:18:28.643Z,100294.09
2023-04-30T01:19:49.429Z,100294.31
2023-04-30T01:20:30.459Z,100275.63
2023-04-30T01:21:12.486Z,100283.28
2023-04-30T01:22:00.387Z,100281.34
2023-04-30T01:22:34.619Z,100295.06
2023-04-30T01:23:33.419Z,100301.25
2023-04-30T01:24:22.531Z,100297.63
2023-04-30T01:25:22.402Z,100299.41
2023-04-30T01:26:34.509Z,100300.44
2023-04-30T01:27:37.408Z,100301.25
2023-04-30T01:28:32.406Z,100290.38
2023-04-30T01:29:29.367Z,100298.56
2023-04-30T01:30:23.404Z,100293.22
2023-04-30T01:31:17.456Z,100278.72
2023-04-30T01:31:57.451Z,100303.53
2023-04-30T01:32:37.508Z,100295.00
2023-04-30T01:33:18.387Z,100301.03
2023-04-30T01:33:58.469Z,100297.56
2023-04-30T01:34:38.373Z,100293.53
2023-04-30T01:35:18.527Z,100307.53
2023-04-30T01:36:07.411Z,100309.28
2023-04-30T01:37:15.435Z,100312.16
2023-04-30T01:38:30.420Z,100310.00
2023-04-30T01:39:45.403Z,100305.97
2023-04-30T01:41:05.397Z,100309.00
2023-04-30T01:42:34.443Z,100318.28
2023-04-30T01:44:05.410Z,100317.31
2023-04-30T01:45:30.380Z,100306.28
2023-04-30T01:46:37.440Z,100309.69
2023-04-30T01:47:54.419Z,100312.63
2023-04-30T01:49:26.402Z,100305.53
2023-04-30T01:50:46.376Z,100312.94
2023-04-30T01:51:52.398Z,100326.56
2023-04-30T01:53:14.418Z,100326.56
2023-04-30T01:54:12.388Z,100320.25
2023-04-30T01:55:14.393Z,100301.63
2023-04-30T01:56:16.413Z,100304.44
2023-04-30T01:57:20.380Z,100314.47
2023-04-30T01:58:21.406Z,100319.66
2023-04-30T01:59:16.361Z,100315.00
2023-04-30T02:00:11.453Z,100328.44
2023-04-30T02:01:05.365Z,100310.53
2023-04-30T02:02:00.567Z,100325.66
2023-04-30T02:02:54.448Z,100310.44
2023-04-30T02:03:41.484Z,100308.06
2023-04-30T02:04:15.959Z,100326.91
2023-04-30T02:05:03.377Z,100325.28
2023-04-30T02:05:37.568Z,100300.56
2023-04-30T02:06:24.463Z,100312.84
2023-04-30T02:06:58.838Z,100313.81
2023-04-30T02:07:52.346Z,100305.22
2023-04-30T02:08:27.228Z,100327.41
2023-04-30T02:09:12.405Z,100313.44
2023-04-30T02:09:52.672Z,100315.59
2023-04-30T02:10:36.382Z,100319.72
2023-04-30T02:11:16.503Z,100332.56
2023-04-30T02:11:57.371Z,100311.03
2023-04-30T02:12:37.497Z,100314.25
2023-04-30T02:13:18.360Z,100316.38
2023-04-30T02:13:58.462Z,100325.13
2023-04-30T02:14:38.388Z,100322.91
2023-04-30T02:15:19.842Z,100325.53
2023-04-30T02:15:59.424Z,100319.16
2023-04-30T02:16:39.527Z,100330.81
2023-04-30T02:17:20.350Z,100334.63
2023-04-30T02:18:00.501Z,100326.66
2023-04-30T02:18:40.345Z,100331.44
2023-04-30T02:19:20.528Z,100333.63
2023-04-30T02:20:00.385Z,100331.91
2023-04-30T02:20:40.535Z,100329.13
2023-04-30T02:21:21.343Z,100338.88
2023-04-30T02:22:01.471Z,100338.03
2023-04-30T02:22:42.386Z,100343.53
2023-04-30T02:23:22.448Z,100344.38
2023-04-30T02:24:02.360Z,100329.13
2023-04-30T02:24:42.517Z,100323.13
2023-04-30T02:25:23.350Z,100343.38
2023-04-30T02:26:03.471Z,100320.97
2023-04-30T02:26:43.335Z,100332.69
2023-04-30T02:27:26.116Z,100330.97
2023-04-30T02:28:06.326Z,100316.78
2023-04-30T02:28:46.420Z,100342.28
2023-04-30T02:29:27.330Z,100326.72
2023-04-30T02:30:08.478Z,100334.91
2023-04-30T02:30:48.410Z,100336.16
2023-04-30T02:31:28.499Z,100340.47
2023-04-30T02:32:08.331Z,100344.25
2023-04-30T02:32:48.462Z,100346.81
2023-04-30T02:33:29.328Z,100345.47
2023-04-30T02:34:09.513Z,100350.25
2023-04-30T02:34:50.348Z,100330.06
2023-04-30T02:35:30.436Z,100345.78
2023-04-30T02:36:11.356Z,100341.47
2023-04-30T02:36:51.415Z,100323.94
2023-04-30T02:37:32.332Z,100342.78
2023-04-30T02:38:12.402Z,100342.00
2023-04-30T02:38:53.333Z,100350.69
2023-04-30T02:39:33.431Z,100347.16
2023-04-30T02:40:15.317Z,100354.59
2023-04-30T02:40:55.471Z,100349.94
2023-04-30T02:41:36.347Z,100339.00
2023-04-30T02:42:16.423Z,100351.03
2023-04-30T02:42:56.355Z,100366.09
2023-04-30T02:43:36.436Z,100367.75
2023-04-30T02:44:17.330Z,100349.94
2023-04-30T02:44:57.700Z,100360.00
2023-04-30T02:45:38.325Z,100330.34
2023-04-30T02:46:19.097Z,100338.91
2023-04-30T02:46:59.319Z,100358.53
2023-04-30T02:47:39.407Z,100353.63
2023-04-30T02:48:20.379Z,100362.91
2023-04-30T02:49:00.465Z,100363.28
2023-04-30T02:49:41.316Z,100357.81
2023-04-30T02:50:21.493Z,100339.94
2023-04-30T02:51:01.309Z,100355.34
2023-04-30T02:51:41.414Z,100343.13
2023-04-30T02:52:21.322Z,100337.44
2023-04-30T02:53:01.860Z,100356.69
2023-04-30T02:53:43.305Z,100349.22
2023-04-30T02:54:23.442Z,100341.25
2023-04-30T02:55:03.332Z,100351.53
2023-04-30T02:55:43.446Z,100351.78
2023-04-30T02:56:23.307Z,100354.31
2023-04-30T02:57:03.425Z,100354.56
2023-04-30T02:57:44.352Z,100367.91
2023-04-30T02:58:24.374Z,100359.00
2023-04-30T02:59:04.294Z,100341.09
2023-04-30T02:59:46.237Z,100352.94
2023-04-30T03:00:27.295Z,100343.84
2023-04-30T03:01:07.517Z,100350.16
2023-04-30T03:01:48.343Z,100369.00
2023-04-30T03:02:28.442Z,100344.47
2023-04-30T03:03:08.492Z,100336.59
2023-04-30T03:03:48.439Z,100359.13
2023-04-30T03:04:28.322Z,100354.56
2023-04-30T03:05:09.429Z,100354.72
2023-04-30T03:05:50.305Z,100356.75
2023-04-30T03:06:31.195Z,100356.13
2023-04-30T03:07:13.310Z,100360.16
2023-04-30T03:07:53.400Z,100343.38
2023-04-30T03:08:34.345Z,100352.16
2023-04-30T03:09:15.050Z,100361.34
2023-04-30T03:09:56.489Z,100372.19
2023-04-30T03:10:36.393Z,100355.03
2023-04-30T03:11:16.279Z,100363.34
2023-04-30T03:11:56.382Z,100349.63
2023-04-30T03:12:36.275Z,100361.00
2023-04-30T03:13:16.417Z,100349.66
2023-04-30T03:14:04.357Z,100369.97
2023-04-30T03:14:38.082Z,100359.19
2023-04-30T03:15:25.304Z,100338.97
2023-04-30T03:16:00.944Z,100364.47
2023-04-30T03:16:48.433Z,100348.41
2023-04-30T03:17:22.128Z,100369.88
2023-04-30T03:18:10.329Z,100359.19
2023-04-30T03:18:44.157Z,100363.88
2023-04-30T03:19:28.298Z,100376.16
2023-04-30T03:20:02.358Z,100348.31
2023-04-30T03:20:36.044Z,100375.69
2023-04-30T03:21:16.303Z,100377.72
2023-04-30T03:21:50.767Z,100366.59
2023-04-30T03:22:26.626Z,100373.59
2023-04-30T03:23:06.287Z,100372.50
2023-04-30T03:23:40.359Z,100361.97
2023-04-30T03:24:14.004Z,100373.72
2023-04-30T03:24:54.295Z,100367.72
2023-04-30T03:25:28.367Z,100377.91
2023-04-30T03:26:02.148Z,100356.97
2023-04-30T03:26:42.272Z,100366.13
2023-04-30T03:27:16.972Z,100381.09
2023-04-30T03:27:51.019Z,100367.41
2023-04-30T03:28:31.290Z,100377.81
2023-04-30T03:29:05.371Z,100366.06
2023-04-30T03:29:39.010Z,100366.06
2023-04-30T03:30:20.306Z,100372.53
2023-04-30T03:30:54.358Z,100376.72
2023-04-30T03:31:28.092Z,100385.19
2023-04-30T03:32:08.264Z,100362.75
2023-04-30T03:32:42.778Z,100365.72
2023-04-30T03:33:17.101Z,100363.00
2023-04-30T03:33:58.351Z,100376.47
2023-04-30T03:34:32.431Z,100376.47
2023-04-30T03:35:08.179Z,100352.44
2023-04-30T03:35:49.352Z,100349.75
2023-04-30T03:36:23.411Z,100375.13
2023-04-30T03:36:57.007Z,100365.56
2023-04-30T03:37:38.275Z,100372.81
2023-04-30T03:38:12.357Z,100373.16
2023-04-30T03:38:46.229Z,100370.69
2023-04-30T03:39:26.260Z,100365.69
2023-04-30T03:40:00.372Z,100378.78
2023-04-30T03:40:34.012Z,100372.31
2023-04-30T03:41:14.308Z,100382.34
2023-04-30T03:41:48.411Z,100377.34
2023-04-30T03:42:22.143Z,100385.03
2023-04-30T03:43:02.264Z,100377.66
2023-04-30T03:43:36.394Z,100365.41
2023-04-30T03:44:15.606Z,100395.81
2023-04-30T03:44:55.279Z,100388.94
2023-04-30T03:45:36.424Z,100383.78
2023-04-30T03:46:16.405Z,100365.41
2023-04-30T03:46:56.391Z,100385.50
2023-04-30T03:47:36.301Z,100399.25
2023-04-30T03:48:16.487Z,100378.75
2023-04-30T03:48:57.263Z,100385.50
2023-04-30T03:49:38.353Z,100363.69
2023-04-30T03:50:18.256Z,100374.50
2023-04-30T03:50:58.389Z,100365.66
2023-04-30T03:51:38.279Z,100392.47
2023-04-30T03:52:18.328Z,100392.59
2023-04-30T03:52:58.339Z,100392.81
2023-04-30T03:53:39.434Z,100388.38
2023-04-30T03:54:19.263Z,100399.16
2023-04-30T03:54:59.748Z,100393.53
2023-04-30T03:55:41.258Z,100381.97
2023-04-30T03:56:22.425Z,100378.09
2023-04-30T03:57:02.274Z,100401.13
2023-04-30T03:57:43.432Z,100394.03
2023-04-30T03:58:23.241Z,100388.88
2023-04-30T03:59:03.334Z,100379.47
2023-04-30T03:59:43.269Z,100405.28
2023-04-30T04:00:23.397Z,100382.75
2023-04-30T04:01:03.260Z,100390.19
2023-04-30T04:01:44.372Z,100394.34
2023-04-30T04:02:24.433Z,100407.94
2023-04-30T04:03:05.426Z,100394.09
2023-04-30T04:03:45.276Z,100414.47
2023-04-30T04:04:25.484Z,100393.28
2023-04-30T04:05:05.246Z,100397.03
2023-04-30T04:05:46.562Z,100401.81
2023-04-30T04:06:26.342Z,100399.47
2023-04-30T04:07:07.971Z,100398.00
2023-04-30T04:07:48.562Z,100421.50
2023-04-30T04:08:28.366Z,100426.81
2023-04-30T04:09:08.240Z,100405.50
2023-04-30T04:09:49.381Z,100423.41
2023-04-30T04:10:29.253Z,100410.25
2023-04-30T04:11:09.312Z,100431.97
2023-04-30T04:11:49.224Z,100414.69
2023-04-30T04:12:29.370Z,100427.25
2023-04-30T04:13:10.270Z,100405.56
2023-04-30T04:13:51.369Z,100426.53
2023-04-30T04:14:31.244Z,100428.16
2023-04-30T04:15:13.489Z,100416.66
2023-04-30T04:15:53.321Z,100421.41
2023-04-30T04:16:33.563Z,100422.25
2023-04-30T04:17:15.281Z,100414.47
2023-04-30T04:17:56.373Z,100429.34
2023-04-30T04:18:36.237Z,100417.47
2023-04-30T04:19:16.362Z,100429.00
2023-04-30T04:19:56.422Z,100433.16
2023-04-30T04:20:36.355Z,100442.91
2023-04-30T04:21:16.223Z,100433.94
2023-04-30T04:21:57.661Z,100409.00
2023-04-30T04:22:38.230Z,100423.53
2023-04-30T04:23:18.315Z,100423.88
2023-04-30T04:23:59.238Z,100430.84
2023-04-30T04:24:40.331Z,100445.59
2023-04-30T04:25:20.240Z,100440.06
2023-04-30T04:26:01.706Z,100436.13
2023-04-30T04:26:47.475Z,100439.53
2023-04-30T04:27:28.494Z,100427.06
2023-04-30T04:28:08.231Z,100437.13
2023-04-30T04:28:48.411Z,100448.56
2023-04-30T04:29:28.235Z,100438.63
2023-04-30T04:30:13.898Z,100436.16
2023-04-30T04:30:54.221Z,100455.78
2023-04-30T04:31:34.620Z,100458.75
2023-04-30T04:32:17.238Z,100454.47
2023-04-30T04:32:57.595Z,100436.28
2023-04-30T04:33:38.276Z,100451.38
2023-04-30T04:34:20.119Z,100462.41
2023-04-30T04:35:01.265Z,100463.66
2023-04-30T04:35:41.319Z,100439.78
2023-04-30T04:36:22.220Z,100448.59
2023-04-30T04:37:02.311Z,100473.75
2023-04-30T04:37:43.196Z,100435.25
2023-04-30T04:38:24.317Z,100458.06
2023-04-30T04:39:08.240Z,100471.66
2023-04-30T04:39:48.477Z,100461.72
2023-04-30T04:40:29.780Z,100447.75
2023-04-30T04:41:10.336Z,100459.75
2023-04-30T04:41:50.207Z,100468.34
2023-04-30T04:42:32.371Z,100454.84
2023-04-30T04:43:12.191Z,100453.63
2023-04-30T04:43:52.782Z,100471.28
2023-04-30T04:44:33.203Z,100462.03
2023-04-30T04:45:16.214Z,100477.25
2023-04-30T04:45:56.280Z,100472.19
2023-04-30T04:46:42.270Z,100486.94
2023-04-30T04:47:23.292Z,100485.47
2023-04-30T04:48:03.393Z,100484.78
2023-04-30T04:48:44.213Z,100474.31
2023-04-30T04:49:24.267Z,100482.34
2023-04-30T04:50:04.221Z,100493.56
2023-04-30T04:50:45.384Z,100490.78
2023-04-30T04:51:25.243Z,100478.03
2023-04-30T04:52:05.424Z,100485.22
2023-04-30T04:52:46.219Z,100464.22
2023-04-30T04:53:26.336Z,100493.94
2023-04-30T04:54:06.208Z,100477.59
2023-04-30T04:54:47.785Z,100489.66
2023-04-30T04:55:28.188Z,100473.97
2023-04-30T04:56:08.929Z,100477.38
2023-04-30T04:56:49.205Z,100476.53
2023-04-30T04:57:29.262Z,100467.09
2023-04-30T04:58:09.218Z,100489.88
2023-04-30T04:58:51.284Z,100492.34
2023-04-30T04:59:31.219Z,100474.91
2023-04-30T05:00:13.037Z,100479.84
2023-04-30T05:00:53.213Z,100499.84
2023-04-30T05:01:33.405Z,100499.75
2023-04-30T05:02:13.212Z,100504.56
2023-04-30T05:02:54.329Z,100501.00
2023-04-30T05:03:35.307Z,100496.91
2023-04-30T05:04:15.278Z,100476.66
2023-04-30T05:04:57.186Z,100489.06
2023-04-30T05:05:37.275Z,100486.22
2023-04-30T05:06:17.218Z,100496.78
2023-04-30T05:06:58.385Z,100504.59
2023-04-30T05:07:38.211Z,100498.78
2023-04-30T05:08:18.290Z,100479.53
2023-04-30T05:08:58.176Z,100518.34
2023-04-30T05:09:38.258Z,100504.84
2023-04-30T05:10:18.172Z,100503.66
2023-04-30T05:10:59.346Z,100496.41
2023-04-30T05:11:39.194Z,100515.56
2023-04-30T05:12:20.638Z,100514.94
2023-04-30T05:13:01.202Z,100502.56
2023-04-30T05:13:41.340Z,100509.56
2023-04-30T05:14:22.184Z,100520.56
2023-04-30T05:15:04.628Z,100512.50
2023-04-30T05:15:45.172Z,100516.22
2023-04-30T05:16:26.415Z,100498.78
2023-04-30T05:17:06.160Z,100491.44
2023-04-30T05:17:46.344Z,100521.66
2023-04-30T05:18:27.205Z,100494.91
2023-04-30T05:19:09.668Z,100492.69
2023-04-30T05:19:51.170Z,100516.25
2023-04-30T05:20:31.260Z,100495.16
2023-04-30T05:21:11.167Z,100519.69
2023-04-30T05:21:51.456Z,100513.44
2023-04-30T05:22:32.158Z,100501.66
2023-04-30T05:23:13.250Z,100504.00
2023-04-30T05:23:54.205Z,100512.84
2023-04-30T05:24:36.280Z,100512.72
2023-04-30T05:25:17.162Z,100515.53
2023-04-30T05:26:00.482Z,100524.84
2023-04-30T05:26:40.164Z,100517.16
2023-04-30T05:27:23.238Z,100510.28
2023-04-30T05:28:04.178Z,100515.81
2023-04-30T05:28:45.452Z,100520.09
2023-04-30T05:29:25.167Z,100515.53
2023-04-30T05:30:05.263Z,100517.03
2023-04-30T05:30:45.176Z,100527.06
2023-04-30T05:31:26.344Z,100540.81
2023-04-30T05:32:06.190Z,100538.63
2023-04-30T05:32:50.754Z,100531.00
2023-04-30T05:33:41.547Z,100540.56
2023-04-30T05:34:21.352Z,100541.19
2023-04-30T05:35:08.163Z,100551.97
2023-04-30T05:35:26.517Z,100534.91
2023-04-30T05:36:13.141Z,100538.44
2023-04-30T05:36:47.272Z,100531.69
2023-04-30T05:37:34.404Z,100542.72
2023-04-30T05:38:25.234Z,100541.00
2023-04-30T05:39:12.174Z,100545.22
2023-04-30T05:39:53.918Z,100548.63
2023-04-30T05:40:54.187Z,100538.72
2023-04-30T05:41:38.294Z,100537.56
2023-04-30T05:42:19.173Z,100518.34
2023-04-30T05:43:02.234Z,100540.81
2023-04-30T05:43:35.960Z,100526.94
2023-04-30T05:44:16.352Z,100542.31
2023-04-30T05:44:57.145Z,100544.16
2023-04-30T05:46:12.588Z,100534.31
2023-04-30T05:47:06.147Z,100553.13
2023-04-30T05:48:00.217Z,100550.53
2023-04-30T05:48:55.154Z,100552.84
2023-04-30T05:49:57.864Z,100554.94
2023-04-30T05:50:45.158Z,100545.50
2023-04-30T05:51:25.167Z,100560.22
2023-04-30T05:52:07.247Z,100519.97
2023-04-30T05:52:47.133Z,100523.66
2023-04-30T05:53:27.227Z,100545.63
2023-04-30T05:54:07.139Z,100555.06
2023-04-30T05:54:50.016Z,100534.47
2023-04-30T05:55:30.126Z,100551.31
2023-04-30T05:56:12.461Z,100563.34
2023-04-30T05:56:53.170Z,100543.53
2023-04-30T05:57:33.369Z,100565.19
2023-04-30T05:58:13.134Z,100563.94
2023-04-30T05:58:53.217Z,100559.50
2023-04-30T05:59:33.143Z,100564.91
2023-04-30T06:00:16.024Z,100551.66
2023-04-30T06:00:58.145Z,100542.31
2023-04-30T06:01:38.237Z,100553.09
2023-04-30T06:03:19.209Z,100561.19
2023-04-30T06:03:54.615Z,100545.84
2023-04-30T06:04:29.068Z,100543.78
2023-04-30T06:05:10.167Z,100572.38
2023-04-30T06:05:44.473Z,100568.56
2023-04-30T06:06:17.876Z,100563.06
2023-04-30T06:06:58.134Z,100571.44
2023-04-30T06:07:32.234Z,100563.19
2023-04-30T06:08:05.849Z,100554.09
2023-04-30T06:08:51.130Z,100551.66
2023-04-30T06:09:25.379Z,100568.38
2023-04-30T06:09:58.923Z,100562.19
2023-04-30T06:10:39.235Z,100548.81
2023-04-30T06:11:13.275Z,100560.63
2023-04-30T06:11:50.294Z,100564.31
2023-04-30T06:12:30.116Z,100556.91
2023-04-30T06:13:04.205Z,100557.88
2023-04-30T06:13:37.983Z,100566.72
2023-04-30T06:14:19.152Z,100560.47
2023-04-30T06:14:53.291Z,100542.56
2023-04-30T06:15:27.069Z,100551.38
2023-04-30T06:16:07.170Z,100545.97
2023-04-30T06:16:41.368Z,100564.75
2023-04-30T06:17:15.897Z,100549.19
2023-04-30T06:17:56.124Z,100559.47
2023-04-30T06:18:30.254Z,100559.25
2023-04-30T06:19:04.917Z,100556.31
2023-04-30T06:19:45.143Z,100556.66
2023-04-30T06:20:19.286Z,100564.41
2023-04-30T06:20:52.835Z,100555.31
2023-04-30T06:21:33.130Z,100582.44
2023-04-30T06:22:07.240Z,100557.50
2023-04-30T06:22:41.449Z,100550.16
2023-04-30T06:23:22.121Z,100570.97
2023-04-30T06:23:56.199Z,100586.00
2023-04-30T06:24:27.620Z,100575.94
2023-04-30T06:25:08.150Z,100577.13
2023-04-30T06:25:42.252Z,100573.69
2023-04-30T06:26:15.854Z,100573.25
2023-04-30T06:26:56.107Z,100586.59
2023-04-30T06:27:32.297Z,100571.28
2023-04-30T06:28:08.278Z,100592.16
2023-04-30T06:28:48.084Z,100564.03
2023-04-30T06:29:24.346Z,100582.78
2023-04-30T06:29:58.429Z,100591.84
2023-04-30T06:30:39.134Z,100583.06
2023-04-30T06:31:13.267Z,100583.25
2023-04-30T06:31:46.920Z,100569.03
2023-04-30T06:32:27.136Z,100580.41
2023-04-30T06:33:01.264Z,100590.28
2023-04-30T06:33:34.853Z,100586.81
2023-04-30T06:34:15.108Z,100571.63
2023-04-30T06:34:49.189Z,100564.59
2023-04-30T06:35:22.888Z,100567.75
2023-04-30T06:36:03.151Z,100589.53
2023-04-30T06:36:37.203Z,100581.56
2023-04-30T06:37:10.947Z,100589.78
2023-04-30T06:37:51.107Z,100588.28
2023-04-30T06:38:25.522Z,100587.44
2023-04-30T06:38:59.832Z,100577.63
2023-04-30T06:39:41.104Z,100594.19
2023-04-30T06:40:15.312Z,100597.59
2023-04-30T06:40:48.880Z,100584.22
2023-04-30T06:41:30.156Z,100579.81
2023-04-30T06:42:04.312Z,100594.66
2023-04-30T06:42:38.641Z,100575.16
2023-04-30T06:43:19.110Z,100611.41
2023-04-30T06:43:53.499Z,100572.44
2023-04-30T06:44:27.875Z,100582.38
2023-04-30T06:45:09.086Z,100588.38
2023-04-30T06:45:43.193Z,100581.97
2023-04-30T06:46:17.048Z,100581.22
2023-04-30T06:46:58.130Z,100579.16
2023-04-30T06:47:36.180Z,100588.81
2023-04-30T06:48:10.152Z,100596.81
2023-04-30T06:48:50.103Z,100594.50
2023-04-30T06:49:24.194Z,100592.44
2023-04-30T06:49:57.913Z,100582.97
2023-04-30T06:50:38.080Z,100575.94
2023-04-30T06:51:15.391Z,100582.72
2023-04-30T06:51:48.861Z,100592.84
2023-04-30T06:52:29.108Z,100578.00
2023-04-30T06:53:03.178Z,100603.63
2023-04-30T06:53:36.883Z,100585.53
2023-04-30T06:54:27.161Z,100568.13
2023-04-30T06:55:09.639Z,100574.47
2023-04-30T06:55:46.785Z,100588.38
2023-04-30T06:56:28.117Z,100603.25
2023-04-30T06:57:03.165Z,100590.72
2023-04-30T06:57:46.364Z,100598.16
2023-04-30T06:58:26.189Z,100601.88
2023-04-30T06:59:06.100Z,100585.81
2023-04-30T06:59:47.729Z,100600.03
2023-04-30T07:00:46.060Z,100606.91
2023-04-30T07:01:27.270Z,100593.88
2023-04-30T07:02:07.082Z,100597.31
2023-04-30T07:02:58.240Z,100610.31
2023-04-30T07:03:47.643Z,100582.91
2023-04-30T07:04:47.097Z,100608.13
2023-04-30T07:05:20.865Z,100616.16
2023-04-30T07:06:32.005Z,100603.72
2023-04-30T07:07:11.862Z,100602.47
2023-04-30T07:07:59.075Z,100617.53
2023-04-30T07:08:47.160Z,100584.63
2023-04-30T07:09:51.783Z,100582.13
2023-04-30T07:10:26.256Z,100600.78
2023-04-30T07:12:12.809Z,100594.41
2023-04-30T07:13:12.079Z,100615.63
2023-04-30T07:14:11.606Z,100578.19
2023-04-30T07:14:52.479Z,100587.00
2023-04-30T07:15:39.141Z,100603.91
2023-04-30T07:16:23.200Z,100621.28
2023-04-30T07:17:04.510Z,100573.63
2023-04-30T07:17:51.075Z,100607.97
2023-04-30T07:18:32.107Z,100593.63
2023-04-30T07:19:09.060Z,100590.78
2023-04-30T07:19:50.666Z,100566.84
2023-04-30T07:20:31.091Z,100600.91
2023-04-30T07:21:20.435Z,100617.09
2023-04-30T07:21:57.072Z,100603.09
2023-04-30T07:22:41.126Z,100612.91
2023-04-30T07:23:21.108Z,100617.94
2023-04-30T07:24:04.087Z,100619.44
2023-04-30T07:24:45.449Z,100616.63
2023-04-30T07:25:27.916Z,100613.72
2023-04-30T07:26:09.297Z,100610.63
2023-04-30T07:26:54.883Z,100617.03
2023-04-30T07:27:36.459Z,100621.19
2023-04-30T07:28:19.080Z,100607.31
2023-04-30T07:29:00.204Z,100581.09
2023-04-30T07:29:41.117Z,100620.66
2023-04-30T07:30:24.403Z,100609.59
2023-04-30T07:31:11.204Z,100594.06
2023-04-30T07:31:54.253Z,100616.78
2023-04-30T07:32:34.123Z,100617.56
2023-04-30T07:33:14.201Z,100615.63
2023-04-30T07:33:55.063Z,100614.91
2023-04-30T07:34:36.137Z,100620.81
2023-04-30T07:35:17.065Z,100614.59
2023-04-30T07:35:58.472Z,100625.78
2023-04-30T07:36:39.064Z,100621.16
2023-04-30T07:37:19.142Z,100630.81
2023-04-30T07:37:59.042Z,100615.09
2023-04-30T07:38:40.225Z,100614.59
2023-04-30T07:39:20.074Z,100626.09
2023-04-30T07:40:00.796Z,100626.09
2023-04-30T07:40:41.088Z,100631.50
2023-04-30T07:41:21.820Z,100621.41
2023-04-30T07:42:02.111Z,100638.75
2023-04-30T07:42:43.189Z,100616.81
2023-04-30T07:43:31.292Z,100628.38
2023-04-30T07:44:06.135Z,100625.06
2023-04-30T07:44:55.089Z,100624.22
2023-04-30T07:45:29.134Z,100641.03
2023-04-30T07:46:10.155Z,100649.19
2023-04-30T07:46:50.286Z,100645.50
2023-04-30T07:47:30.092Z,100639.28
2023-04-30T07:48:10.343Z,100627.34
2023-04-30T07:48:51.043Z,100600.13
2023-04-30T07:49:32.154Z,100643.91
2023-04-30T07:50:13.059Z,100640.59
2023-04-30T07:50:55.252Z,100645.38
2023-04-30T07:51:36.059Z,100610.00
2023-04-30T07:52:18.667Z,100632.19
2023-04-30T07:53:00.299Z,100609.50
2023-04-30T07:53:43.570Z,100644.69
2023-04-30T07:54:26.403Z,100634.03
2023-04-30T07:55:07.205Z,100650.88
2023-04-30T07:55:51.607Z,100618.81
2023-04-30T07:56:32.195Z,100657.13
2023-04-30T07:57:14.126Z,100655.88
2023-04-30T07:57:54.144Z,100643.88
2023-04-30T07:58:42.004Z,100649.09
2023-04-30T07:59:26.253Z,100622.47
2023-04-30T08:00:05.999Z,100645.16
2023-04-30T08:00:46.189Z,100657.16
2023-04-30T08:01:26.055Z,100661.28
2023-04-30T08:02:07.191Z,100643.78
2023-04-30T08:02:50.178Z,100653.63
2023-04-30T08:03:31.174Z,100660.63